Time;durP1;ratioP1;P1;durP2;ratioP2;P2;SDS_P1;SDS_P2;PMS_P1;PMS_P2;Temp;Humidity;BMP_temperature;BMP_pressure;BME280_temperature;BME280_humidity;BME280_pressure;Samples;Min_cycle;Max_cycle;Signal;HPM_P1;HPM_P2
2022/09/27 00:02:13;;;;;;;15.27;14.48;;;;;;;17.20;100.00;99646.88;5054206;28;20025;-70
2022/09/27 00:04:38;;;;;;;16.00;15.15;;;;;;;17.09;100.00;99643.97;5053693;28;20029;-70
2022/09/27 00:07:04;;;;;;;15.75;14.95;;;;;;;17.10;100.00;99639.44;5054179;28;20020;-70
2022/09/27 00:09:30;;;;;;;16.13;15.23;;;;;;;17.11;100.00;99638.38;5053233;28;20039;-70
2022/09/27 00:11:55;;;;;;;16.25;15.35;;;;;;;17.15;100.00;99639.53;5044995;28;20032;-69
2022/09/27 00:14:21;;;;;;;15.68;14.88;;;;;;;17.14;100.00;99640.59;5054013;28;20032;-71
2022/09/27 00:16:47;;;;;;;16.13;15.23;;;;;;;17.07;100.00;99632.69;5053850;28;20032;-70
2022/09/27 00:19:16;;;;;;;15.27;14.48;;;;;;;17.07;100.00;99634.56;5053717;28;20074;-70
2022/09/27 00:21:42;;;;;;;16.00;15.20;;;;;;;17.05;100.00;99625.97;5053574;28;20040;-71
2022/09/27 00:24:13;;;;;;;16.00;15.10;;;;;;;17.06;100.00;99625.72;5053811;28;20074;-71
2022/09/27 00:26:39;;;;;;;15.75;14.95;;;;;;;17.05;100.00;99631.31;5052795;28;20021;-70
2022/09/27 00:29:05;;;;;;;15.85;14.95;;;;;;;17.05;100.00;99628.66;5049994;28;20542;-70
2022/09/27 00:31:31;;;;;;;15.60;14.80;;;;;;;16.81;100.00;99612.63;5048515;28;20025;-70
2022/09/27 00:34:01;;;;;;;15.40;14.60;;;;;;;16.94;100.00;99616.09;5053871;28;20032;-71
2022/09/27 00:36:28;;;;;;;15.15;14.35;;;;;;;17.03;100.00;99618.13;5053671;28;20108;-70
2022/09/27 00:38:54;;;;;;;14.82;14.10;;;;;;;17.11;100.00;99612.44;5053364;28;20100;-72
2022/09/27 00:41:33;;;;;;;14.73;14.02;;;;;;;17.05;100.00;99612.56;5053691;28;20044;-71
2022/09/27 00:44:22;;;;;;;14.73;14.00;;;;;;;17.17;100.00;99613.31;5052428;28;20075;-72
2022/09/27 00:47:02;;;;;;;14.93;14.13;;;;;;;17.03;100.00;99602.06;5053483;28;20114;-70
2022/09/27 00:49:31;;;;;;;15.32;14.52;;;;;;;17.08;100.00;99596.81;5053365;28;20080;-72
2022/09/27 00:52:22;;;;;;;15.10;14.30;;;;;;;17.17;100.00;99607.13;5053229;28;20094;-70
2022/09/27 00:54:54;;;;;;;14.70;13.98;;;;;;;17.10;100.00;99600.06;5047978;28;20132;-71
2022/09/27 00:57:21;;;;;;;14.57;13.80;;;;;;;17.09;100.00;99602.97;5053260;28;20013;-71
2022/09/27 00:59:50;;;;;;;15.77;14.88;;;;;;;17.09;100.00;99594.94;5053256;28;20032;-70
2022/09/27 01:02:17;;;;;;;14.57;13.88;;;;;;;16.99;100.00;99589.41;5050950;28;20032;-72
2022/09/27 01:04:43;;;;;;;15.07;14.27;;;;;;;16.84;100.00;99579.22;5053130;28;20029;-71
2022/09/27 01:07:09;;;;;;;14.70;14.00;;;;;;;17.01;100.00;99587.28;5055533;28;20048;-70
2022/09/27 01:09:34;;;;;;;14.90;14.18;;;;;;;17.04;100.00;99592.16;5064235;28;20429;-70
2022/09/27 01:12:06;;;;;;;15.35;14.55;;;;;;;16.93;100.00;99583.13;5052978;28;20054;-72
2022/09/27 01:15:00;;;;;;;14.70;14.00;;;;;;;16.81;100.00;99601.91;5053106;28;20503;-71
2022/09/27 01:17:32;;;;;;;15.40;14.57;;;;;;;16.85;100.00;99599.59;5052174;28;20035;-72
2022/09/27 01:20:12;;;;;;;15.75;14.85;;;;;;;16.90;100.00;99598.88;5043217;28;20029;-71
2022/09/27 01:22:56;;;;;;;15.68;14.85;;;;;;;16.94;100.00;99598.16;5052773;28;20025;-71
2022/09/27 01:25:58;;;;;;;15.35;14.55;;;;;;;16.91;100.00;99589.78;5048383;28;20029;-69
2022/09/27 01:28:35;;;;;;;14.75;14.05;;;;;;;16.83;100.00;99589.13;5047761;28;20028;-71
2022/09/27 01:31:12;;;;;;;14.70;14.00;;;;;;;16.88;100.00;99590.25;5052644;28;20033;-71
2022/09/27 01:34:01;;;;;;;15.00;14.20;;;;;;;16.67;100.00;99571.09;5052453;28;20060;-71
2022/09/27 01:36:31;;;;;;;15.30;14.50;;;;;;;16.61;100.00;99565.88;5051670;28;20025;-71
2022/09/27 01:39:16;;;;;;;14.70;14.00;;;;;;;16.34;100.00;99569.06;5047217;28;20025;-71
2022/09/27 01:42:03;;;;;;;14.88;14.10;;;;;;;16.48;100.00;99556.25;5051555;28;20418;-70
2022/09/27 01:44:43;;;;;;;15.20;14.40;;;;;;;16.44;100.00;99549.72;5052363;28;20024;-70
2022/09/27 01:47:22;;;;;;;16.38;15.48;;;;;;;16.33;100.00;99547.91;5052442;28;20028;-70
2022/09/27 01:50:06;;;;;;;27.38;25.70;;;;;;;16.01;100.00;99558.97;5052175;28;20090;-71
2022/09/27 01:53:04;;;;;;;20.65;19.45;;;;;;;15.75;100.00;99563.75;5051390;28;20040;-71
2022/09/27 01:55:34;;;;;;;20.08;18.98;;;;;;;15.66;100.00;99559.00;5044801;28;20043;-70
2022/09/27 01:58:19;;;;;;;20.13;19.02;;;;;;;15.22;100.00;99554.94;5052703;28;20096;-71
2022/09/27 02:00:49;;;;;;;18.30;17.40;;;;;;;15.47;100.00;99560.91;5052147;28;20384;-70
2022/09/27 02:03:31;;;;;;;18.42;17.42;;;;;;;15.53;100.00;99569.84;5051987;28;20109;-72
2022/09/27 02:06:06;;;;;;;18.15;17.15;;;;;;;15.48;100.00;99568.69;5052023;28;20095;-70
2022/09/27 02:08:34;;;;;;;18.23;17.23;;;;;;;15.45;100.00;99566.47;5050822;28;20035;-71
2022/09/27 02:11:05;;;;;;;18.02;17.02;;;;;;;15.73;100.00;99562.38;5039508;28;20423;-70
2022/09/27 02:13:37;;;;;;;18.27;17.23;;;;;;;15.95;100.00;99565.28;5051844;28;20036;-70
2022/09/27 02:16:36;;;;;;;18.10;17.05;;;;;;;16.06;100.00;99556.41;5051831;28;20546;-69
2022/09/27 02:19:28;;;;;;;15.88;15.07;;;;;;;15.71;100.00;99541.19;5051645;28;20453;-71
2022/09/27 02:21:57;;;;;;;15.95;15.15;;;;;;;15.51;100.00;99547.91;5045129;28;20499;-71
2022/09/27 02:24:34;;;;;;;16.50;15.60;;;;;;;15.70;100.00;99550.25;5051646;28;20050;-69
2022/09/27 02:27:10;;;;;;;16.10;15.30;;;;;;;15.71;100.00;99554.56;5039903;28;20025;-72
2022/09/27 02:29:49;;;;;;;16.00;15.20;;;;;;;15.55;100.00;99549.06;5048293;28;20081;-71
2022/09/27 02:32:15;;;;;;;16.10;15.30;;;;;;;15.53;100.00;99545.81;5051614;28;20099;-71
2022/09/27 02:34:43;;;;;;;16.70;15.80;;;;;;;15.59;100.00;99547.56;5050068;28;20104;-71
2022/09/27 02:37:09;;;;;;;15.88;15.07;;;;;;;15.84;100.00;99542.00;5051682;28;20104;-71
2022/09/27 02:39:35;;;;;;;16.27;15.38;;;;;;;15.97;100.00;99539.09;5051470;28;20512;-71
2022/09/27 02:42:02;;;;;;;15.85;15.05;;;;;;;16.05;100.00;99533.38;5051612;28;20556;-71
2022/09/27 02:44:29;;;;;;;15.25;14.55;;;;;;;16.14;100.00;99531.97;5050564;28;20107;-71
2022/09/27 02:47:11;;;;;;;15.80;15.00;;;;;;;16.12;100.00;99528.72;5051607;28;20029;-71
2022/09/27 02:49:55;;;;;;;15.95;15.07;;;;;;;16.11;100.00;99519.06;5051412;28;20119;-71
2022/09/27 02:52:49;;;;;;;15.63;14.82;;;;;;;16.34;100.00;99520.88;5051500;28;20086;-71
2022/09/27 02:55:22;;;;;;;15.63;14.82;;;;;;;16.28;100.00;99503.91;5051418;28;20017;-70
2022/09/27 02:58:16;;;;;;;15.57;14.77;;;;;;;16.35;100.00;99500.28;5051415;28;20029;-71
2022/09/27 03:01:15;;;;;;;15.23;14.43;;;;;;;16.41;100.00;99502.03;5050437;28;20115;-70
2022/09/27 03:03:50;;;;;;;15.70;14.90;;;;;;;16.49;100.00;99507.81;5045975;28;20460;-70
2022/09/27 03:06:17;;;;;;;;;;;;;;;16.47;100.00;99501.06;5051870;28;20025;-71
2022/09/27 03:08:43;;;;;;;16.20;15.30;;;;;;;16.55;100.00;99496.16;5051441;28;19921;-69
2022/09/27 03:11:08;;;;;;;15.75;14.93;;;;;;;16.50;100.00;99492.56;5051202;28;20480;-70
2022/09/27 03:13:37;;;;;;;15.13;14.32;;;;;;;16.42;100.00;99495.59;5051273;28;20017;-72
2022/09/27 03:16:04;;;;;;;16.05;15.18;;;;;;;16.38;100.00;99489.94;5051180;28;20463;-71
2022/09/27 03:18:30;;;;;;;15.30;14.57;;;;;;;16.33;100.00;99476.44;5044874;28;20117;-71
2022/09/27 03:20:56;;;;;;;15.60;14.80;;;;;;;16.03;100.00;99484.66;5051153;28;20100;-71
2022/09/27 03:23:21;;;;;;;15.50;14.70;;;;;;;15.56;100.00;99484.66;5050764;28;20033;-71
2022/09/27 03:25:47;;;;;;;16.05;15.15;;;;;;;15.71;100.00;99493.06;5050898;28;20508;-70
2022/09/27 03:28:13;;;;;;;16.63;15.65;;;;;;;15.92;100.00;99493.50;5050969;28;20400;-71
2022/09/27 03:30:38;;;;;;;15.93;15.13;;;;;;;15.91;100.00;99489.22;5050880;28;20029;-71
2022/09/27 03:33:04;;;;;;;16.15;15.25;;;;;;;15.98;100.00;99477.34;5051064;28;20025;-71
2022/09/27 03:35:30;;;;;;;16.00;15.10;;;;;;;15.74;100.00;99481.09;5049932;28;20036;-71
2022/09/27 03:37:55;;;;;;;15.88;15.07;;;;;;;15.87;100.00;99482.72;5051091;28;20021;-71
2022/09/27 03:40:21;;;;;;;15.68;14.88;;;;;;;15.87;100.00;99474.69;5053816;28;20031;-72
2022/09/27 03:42:49;;;;;;;16.15;15.25;;;;;;;15.86;100.00;99462.34;5054292;28;20043;-69
2022/09/27 03:45:14;;;;;;;15.80;15.00;;;;;;;15.88;100.00;99460.28;5055564;28;20570;-71
2022/09/27 03:47:40;;;;;;;15.98;15.07;;;;;;;15.58;100.00;99449.69;5054499;28;20069;-70
2022/09/27 03:50:07;;;;;;;15.60;14.80;;;;;;;15.62;100.00;99451.69;5054889;28;20033;-71
2022/09/27 03:52:33;;;;;;;15.70;14.90;;;;;;;15.61;100.00;99449.22;5054120;28;20029;-71
2022/09/27 03:54:59;;;;;;;16.35;15.45;;;;;;;15.63;100.00;99458.66;5054337;28;20049;-71
2022/09/27 03:57:24;;;;;;;15.93;15.10;;;;;;;15.69;100.00;99448.88;5048554;28;20041;-70
2022/09/27 03:59:50;;;;;;;16.63;15.73;;;;;;;15.49;100.00;99441.19;5054131;28;20020;-71
2022/09/27 04:02:16;;;;;;;16.65;15.75;;;;;;;15.52;100.00;99448.75;5054303;28;20450;-71
2022/09/27 04:04:42;;;;;;;17.33;16.30;;;;;;;15.43;100.00;99450.97;5054186;28;20029;-71
2022/09/27 04:07:08;;;;;;;16.48;15.57;;;;;;;15.26;100.00;99455.38;5054157;28;20029;-71
2022/09/27 04:09:36;;;;;;;16.63;15.70;;;;;;;15.22;100.00;99448.06;5052924;28;20079;-72
2022/09/27 04:12:03;;;;;;;16.77;15.88;;;;;;;15.02;100.00;99432.34;5054044;28;20054;-70
2022/09/27 04:14:28;;;;;;;17.92;16.83;;;;;;;15.09;100.00;99447.22;5050656;28;20079;-70
2022/09/27 04:16:54;;;;;;;19.13;18.00;;;;;;;15.00;100.00;99437.13;5053904;28;20033;-72
2022/09/27 04:19:20;;;;;;;19.10;17.95;;;;;;;15.17;100.00;99441.53;5053718;28;20025;-71
2022/09/27 04:21:46;;;;;;;20.73;19.45;;;;;;;14.98;100.00;99433.84;5053719;28;20598;-72
2022/09/27 04:24:11;;;;;;;19.80;18.73;;;;;;;15.11;100.00;99437.13;5052974;28;20303;-70
2022/09/27 04:26:38;;;;;;;17.80;16.77;;;;;;;15.24;100.00;99435.28;5052849;28;20017;-70
2022/09/27 04:29:04;;;;;;;16.60;15.70;;;;;;;15.24;100.00;99435.28;5053681;28;20028;-71
2022/09/27 04:31:30;;;;;;;16.92;15.93;;;;;;;15.46;100.00;99441.66;5053622;28;20021;-71
2022/09/27 04:33:57;;;;;;;15.98;15.18;;;;;;;15.31;100.00;99436.78;5053403;28;20028;-70
2022/09/27 04:36:25;;;;;;;17.33;16.27;;;;;;;15.36;100.00;99438.78;5053651;28;20396;-71
2022/09/27 04:38:55;;;;;;;17.13;16.10;;;;;;;15.72;100.00;99427.84;5053305;28;20107;-70
2022/09/27 04:41:22;;;;;;;15.90;15.00;;;;;;;15.72;100.00;99438.56;5053343;28;20455;-71
2022/09/27 04:43:48;;;;;;;16.67;15.70;;;;;;;15.78;100.00;99438.66;5052291;28;20086;-70
2022/09/27 04:46:13;;;;;;;16.40;15.40;;;;;;;15.61;100.00;99443.88;5053455;28;20638;-70
2022/09/27 04:48:40;;;;;;;17.25;16.15;;;;;;;15.65;100.00;99443.22;5052847;28;20053;-69
2022/09/27 04:51:06;;;;;;;17.00;15.98;;;;;;;15.66;100.00;99431.47;5050906;28;20020;-70
2022/09/27 04:53:31;;;;;;;16.02;15.13;;;;;;;15.53;100.00;99415.63;5052689;28;20017;-71
2022/09/27 04:56:01;;;;;;;17.25;16.15;;;;;;;15.50;100.00;99434.81;5053076;28;20029;-70
2022/09/27 04:58:28;;;;;;;16.00;15.10;;;;;;;15.46;100.00;99436.31;5052650;28;20120;-70
2022/09/27 05:00:54;;;;;;;16.83;15.82;;;;;;;15.69;100.00;99440.88;5052826;28;20025;-70
2022/09/27 05:03:21;;;;;;;16.52;15.57;;;;;;;15.68;100.00;99442.72;5052832;28;20032;-71
2022/09/27 05:05:46;;;;;;;17.75;16.58;;;;;;;15.86;100.00;99440.94;5052846;28;20104;-71
2022/09/27 05:08:12;;;;;;;15.93;15.02;;;;;;;15.54;100.00;99440.50;5051583;28;20061;-70
2022/09/27 05:10:38;;;;;;;15.98;15.07;;;;;;;15.50;100.00;99437.50;5052939;28;20056;-71
2022/09/27 05:13:03;;;;;;;16.83;15.82;;;;;;;15.42;100.00;99429.81;5053119;28;20466;-71
2022/09/27 05:15:29;;;;;;;15.40;14.60;;;;;;;16.73;100.00;99440.78;5052725;28;20094;-72
2022/09/27 05:17:55;;;;;;;15.98;15.07;;;;;;;16.11;100.00;99432.66;5052356;28;20031;-70
2022/09/27 05:20:21;;;;;;;16.25;15.32;;;;;;;16.72;100.00;99433.81;5052427;28;20107;-71
2022/09/27 05:22:46;;;;;;;15.25;14.45;;;;;;;18.15;100.00;99424.13;5053191;28;20028;-71
2022/09/27 05:25:12;;;;;;;14.75;14.05;;;;;;;18.84;100.00;99418.13;5053102;28;20032;-69
2022/09/27 05:27:38;;;;;;;15.10;14.30;;;;;;;19.24;100.00;99396.13;5052282;28;20021;-70
2022/09/27 05:30:06;;;;;;;14.43;13.73;;;;;;;18.62;100.00;99396.66;5052387;28;20396;-71
2022/09/27 05:32:33;;;;;;;15.20;14.40;;;;;;;17.89;100.00;99398.84;5051783;28;20150;-70
2022/09/27 05:34:58;;;;;;;14.80;14.10;;;;;;;17.22;100.00;99406.22;5052451;28;20021;-71
2022/09/27 05:37:24;;;;;;;15.27;14.48;;;;;;;16.80;100.00;99415.47;5052319;28;20020;-70
2022/09/27 05:39:50;;;;;;;15.23;14.43;;;;;;;16.75;100.00;99431.47;5052547;28;20115;-70
2022/09/27 05:42:16;;;;;;;15.43;14.63;;;;;;;19.42;100.00;99434.41;5052399;28;20068;-71
2022/09/27 05:44:45;;;;;;;15.93;15.02;;;;;;;19.78;100.00;99408.56;5052464;28;20041;-71
2022/09/27 05:47:11;;;;;;;15.05;14.25;;;;;;;20.91;100.00;99400.47;5039435;28;20025;-71
2022/09/27 05:49:38;;;;;;;16.67;15.68;;;;;;;23.52;100.00;99389.13;5050534;28;20048;-71
2022/09/27 05:52:03;;;;;;;15.27;14.38;;;;;;;23.34;100.00;99391.47;5051318;28;20048;-71
2022/09/27 05:54:29;;;;;;;14.20;13.50;;;;;;;24.71;100.00;99398.97;5051966;28;20052;-70
2022/09/27 05:56:59;;;;;;;14.07;13.38;;;;;;;28.60;100.00;99415.75;5049163;28;20049;-72
2022/09/27 05:59:25;;;;;;;13.55;12.85;;;;;;;25.99;100.00;99420.03;5042410;28;20021;-70
2022/09/27 06:01:51;;;;;;;14.38;13.63;;;;;;;24.87;100.00;99410.38;5051514;28;20028;-70
2022/09/27 06:04:18;;;;;;;14.88;14.07;;;;;;;21.49;100.00;99400.16;5051523;28;20029;-70
2022/09/27 06:06:44;;;;;;;15.30;14.45;;;;;;;23.98;100.00;99398.34;5048316;28;20032;-71
2022/09/27 06:09:11;;;;;;;14.95;14.15;;;;;;;24.93;100.00;99401.06;5051658;28;20039;-70
2022/09/27 06:11:36;;;;;;;14.63;13.82;;;;;;;23.28;100.00;99405.31;5050245;28;20481;-70
2022/09/27 06:14:02;;;;;;;14.10;13.40;;;;;;;24.03;100.00;99399.38;5051616;28;20040;-70
2022/09/27 06:16:27;;;;;;;14.65;13.85;;;;;;;24.34;100.00;99397.09;5051568;28;20545;-70
2022/09/27 06:18:53;;;;;;;14.38;13.65;;;;;;;26.43;100.00;99394.06;5049964;28;20404;-70
2022/09/27 06:21:19;;;;;;;14.68;13.88;;;;;;;25.41;100.00;99406.19;5051413;28;20064;-70
2022/09/27 06:23:44;;;;;;;14.40;13.70;;;;;;;26.51;100.00;99398.78;5049218;28;20543;-70
2022/09/27 06:26:11;;;;;;;14.15;13.45;;;;;;;25.89;100.00;99396.59;5046910;28;20025;-71
2022/09/27 06:28:36;;;;;;;13.93;13.23;;;;;;;26.89;100.00;99390.28;5039385;28;20017;-70
2022/09/27 06:31:05;;;;;;;13.70;13.00;;;;;;;24.92;100.00;99402.16;5046533;28;20090;-71
2022/09/27 06:33:31;;;;;;;13.57;12.90;;;;;;;25.60;100.00;99402.31;5051289;28;20071;-71
2022/09/27 06:36:03;;;;;;;14.50;13.80;;;;;;;24.65;100.00;99402.84;5043947;28;20109;-70
2022/09/27 06:38:29;;;;;;;13.90;13.20;;;;;;;27.01;100.00;99404.09;5051136;28;20020;-71
2022/09/27 06:40:57;;;;;;;13.88;13.18;;;;;;;27.08;100.00;99399.06;5050091;28;20381;-71
2022/09/27 06:43:23;;;;;;;13.52;12.93;;;;;;;28.45;100.00;99390.88;5051214;28;20552;-71
2022/09/27 06:45:49;;;;;;;14.93;14.13;;;;;;;27.40;100.00;99399.88;5047339;28;20124;-70
2022/09/27 06:48:16;;;;;;;13.75;13.05;;;;;;;28.72;100.00;99401.47;5050971;28;20053;-71
2022/09/27 06:50:43;;;;;;;13.90;13.20;;;;;;;27.75;100.00;99384.47;5042923;28;20448;-70
2022/09/27 06:53:10;;;;;;;15.02;14.23;;;;;;;29.72;100.00;99401.03;5051280;28;20021;-70
2022/09/27 06:55:37;;;;;;;13.10;12.50;;;;;;;27.73;100.00;99392.97;5051464;28;20073;-69
2022/09/27 07:00:52;;;;;;;13.93;13.23;;;;;;;26.77;100.00;99385.38;5045926;28;20445;-71
2022/09/27 07:03:19;;;;;;;13.38;12.77;;;;;;;26.17;100.00;99386.47;5043875;28;20029;-71
2022/09/27 07:05:57;;;;;;;13.55;12.90;;;;;;;28.54;100.00;99376.09;5045759;28;20025;-70
2022/09/27 07:08:25;;;;;;;13.13;12.52;;;;;;;26.74;100.00;99383.31;5036772;28;20033;-70
2022/09/27 07:10:51;;;;;;;14.07;13.38;;;;;;;24.00;100.00;99376.38;5050590;28;20024;-70
2022/09/27 07:13:17;;;;;;;14.85;14.07;;;;;;;25.14;100.00;99380.63;5051006;28;20017;-70
2022/09/27 07:15:43;;;;;;;14.00;13.30;;;;;;;24.25;100.00;99369.81;5053916;28;20044;-72
2022/09/27 07:18:09;;;;;;;14.52;13.80;;;;;;;28.72;100.00;99368.72;5054539;28;20082;-70
2022/09/27 07:20:38;;;;;;;14.00;13.30;;;;;;;24.60;100.00;99382.03;5054709;28;20033;-70
2022/09/27 07:23:05;;;;;;;14.45;13.68;;;;;;;23.79;100.00;99383.13;5054685;28;20097;-70
2022/09/27 07:25:32;;;;;;;14.05;13.35;;;;;;;27.63;100.00;99384.25;5054602;28;20024;-71
2022/09/27 07:28:09;;;;;;;13.90;13.20;;;;;;;28.92;100.00;99386.34;5054684;28;20386;-71
2022/09/27 07:30:36;;;;;;;13.70;13.00;;;;;;;26.98;100.00;99381.06;5054510;28;20021;-72
2022/09/27 07:33:04;;;;;;;13.93;13.23;;;;;;;27.71;100.00;99391.69;5053742;28;20079;-71
2022/09/27 07:35:30;;;;;;;13.43;12.82;;;;;;;29.78;100.00;99398.13;5054933;28;20107;-71
2022/09/27 07:37:57;;;;;;;13.57;12.88;;;;;;;28.69;100.00;99385.72;5054986;28;20070;-71
2022/09/27 07:40:24;;;;;;;13.18;12.57;;;;;;;29.55;100.00;99395.69;5054765;28;20025;-71
2022/09/27 07:42:58;;;;;;;13.52;12.82;;;;;;;31.49;89.68;99390.72;5054535;28;20079;-70
2022/09/27 07:45:25;;;;;;;14.02;13.32;;;;;;;29.72;94.59;99392.03;5054628;28;20049;-71
2022/09/27 07:47:51;;;;;;;13.57;12.93;;;;;;;30.09;93.57;99382.19;5054508;28;20530;-71
2022/09/27 07:50:18;;;;;;;13.77;13.07;;;;;;;30.67;90.99;99388.69;5041579;28;20026;-71
2022/09/27 07:52:46;;;;;;;13.07;12.48;;;;;;;28.63;100.00;99384.28;5054498;28;20025;-70
2022/09/27 07:55:13;;;;;;;13.48;12.88;;;;;;;30.02;95.83;99376.44;5054392;28;20027;-72
2022/09/27 07:57:40;;;;;;;13.95;13.25;;;;;;;28.44;100.00;99368.25;5054280;28;20017;-71
2022/09/27 08:00:08;;;;;;;14.02;13.32;;;;;;;29.22;100.00;99372.78;5044242;28;20041;-71
2022/09/27 08:02:34;;;;;;;13.20;12.60;;;;;;;27.86;100.00;99368.66;5054042;28;20159;-71
2022/09/27 08:05:00;;;;;;;13.40;12.77;;;;;;;28.62;100.00;99366.31;5054202;28;20112;-71
2022/09/27 08:07:27;;;;;;;13.93;13.23;;;;;;;25.81;100.00;99369.31;5053291;28;20480;-70
2022/09/27 08:09:52;;;;;;;13.73;13.02;;;;;;;30.29;99.11;99369.66;5054055;28;20148;-72
2022/09/27 08:12:20;;;;;;;13.52;12.82;;;;;;;30.40;93.04;99376.31;5054164;28;20489;-70
2022/09/27 08:14:49;;;;;;;15.52;14.68;;;;;;;29.90;99.46;99385.38;5052694;28;20373;-72
2022/09/27 08:17:16;;;;;;;13.85;13.15;;;;;;;29.97;97.34;99373.91;5053816;28;20045;-70
2022/09/27 08:19:43;;;;;;;13.15;12.55;;;;;;;28.78;97.53;99367.41;5053511;28;20100;-70
2022/09/27 08:22:12;;;;;;;14.00;13.30;;;;;;;28.63;100.00;99357.78;5053466;28;20021;-71
2022/09/27 08:24:38;;;;;;;13.60;12.90;;;;;;;30.08;97.53;99353.22;5052183;28;20395;-70
2022/09/27 08:27:06;;;;;;;14.15;13.45;;;;;;;29.89;94.49;99342.75;5053726;28;20036;-71
2022/09/27 08:29:33;;;;;;;13.80;13.10;;;;;;;27.19;100.00;99348.69;5053522;28;20032;-71
2022/09/27 08:31:59;;;;;;;13.60;12.90;;;;;;;26.23;100.00;99345.59;5053768;28;20023;-70
2022/09/27 08:34:24;;;;;;;13.77;13.07;;;;;;;27.36;100.00;99342.50;5052158;28;20435;-71
2022/09/27 08:36:50;;;;;;;13.80;13.10;;;;;;;27.45;100.00;99331.63;5053622;28;20075;-71
2022/09/27 08:39:15;;;;;;;15.88;14.98;;;;;;;27.06;100.00;99324.28;5053568;28;20021;-70
2022/09/27 08:41:52;;;;;;;14.57;13.82;;;;;;;29.28;100.00;99338.69;5052704;28;20104;-72
2022/09/27 08:44:54;;;;;;;15.43;14.57;;;;;;;29.37;100.00;99329.31;5053722;28;20043;-71
2022/09/27 08:47:28;;;;;;;14.75;13.95;;;;;;;27.07;100.00;99336.75;5044458;28;20507;-72
2022/09/27 08:50:05;;;;;;;14.93;14.13;;;;;;;26.52;100.00;99335.13;5053250;28;20035;-72
2022/09/27 08:52:42;;;;;;;14.85;14.05;;;;;;;25.84;100.00;99334.19;5052069;28;20067;-72
2022/09/27 08:55:43;;;;;;;16.30;15.32;;;;;;;26.43;100.00;99337.78;5047927;28;20511;-70
2022/09/27 08:58:24;;;;;;;14.95;14.15;;;;;;;26.92;100.00;99338.75;5051139;28;20108;-70
2022/09/27 09:00:54;;;;;;;15.25;14.45;;;;;;;27.76;100.00;99342.47;5042081;28;20021;-71
2022/09/27 09:03:24;;;;;;;15.25;14.45;;;;;;;28.17;100.00;99347.50;5052911;28;20025;-72
2022/09/27 09:06:50;;;;;;;15.60;14.77;;;;;;;28.89;100.00;99343.31;5053110;28;20036;-71
2022/09/27 09:09:34;;;;;;;15.30;14.50;;;;;;;28.83;99.93;99347.31;5046818;28;20040;-72
2022/09/27 09:15:55;;;;;;;15.23;14.43;;;;;;;28.32;100.00;99340.81;5033599;28;20121;-72
2022/09/27 09:18:48;;;;;;;14.80;14.00;;;;;;;28.90;99.42;99332.09;5052807;28;20025;-71
2022/09/27 09:21:31;;;;;;;15.05;14.25;;;;;;;29.86;94.30;99329.72;5065400;28;20025;-71
2022/09/27 09:24:15;;;;;;;15.13;14.32;;;;;;;29.10;98.61;99318.88;5052662;28;20119;-72
2022/09/27 09:26:59;;;;;;;14.10;13.40;;;;;;;28.34;100.00;99308.56;5052444;28;20046;-72
2022/09/27 09:29:39;;;;;;;14.25;13.55;;;;;;;27.32;100.00;99299.88;5052405;28;20031;-70
2022/09/27 09:32:30;;;;;;;15.75;14.85;;;;;;;26.23;100.00;99291.22;5039798;28;20428;-72
2022/09/27 09:35:04;;;;;;;16.17;15.20;;;;;;;27.38;100.00;99291.22;5052369;28;20028;-71
2022/09/27 09:37:37;;;;;;;15.70;14.80;;;;;;;27.61;100.00;99280.22;5051507;28;20036;-72
2022/09/27 09:40:30;;;;;;;14.90;14.10;;;;;;;26.21;100.00;99280.63;5052420;28;20037;-71
2022/09/27 09:43:19;;;;;;;14.85;14.05;;;;;;;26.30;100.00;99278.00;5051194;28;20119;-71
2022/09/27 09:45:54;;;;;;;14.75;13.95;;;;;;;24.97;100.00;99278.09;5045081;28;20028;-71
2022/09/27 09:48:42;;;;;;;15.00;14.20;;;;;;;22.28;100.00;99272.34;5039032;28;20128;-72
2022/09/27 09:51:16;;;;;;;15.00;14.20;;;;;;;24.17;100.00;99267.50;5037938;28;20804;-72
2022/09/27 09:53:48;;;;;;;15.48;14.68;;;;;;;25.89;100.00;99276.22;5046839;28;20020;-70
2022/09/27 09:56:23;;;;;;;14.35;13.65;;;;;;;24.88;100.00;99287.19;5052133;28;20099;-70
2022/09/27 09:58:57;;;;;;;15.57;14.70;;;;;;;23.10;100.00;99285.94;5051989;28;20055;-72
2022/09/27 10:01:29;;;;;;;15.10;14.30;;;;;;;24.08;100.00;99277.38;5051984;28;20029;-71
2022/09/27 10:03:55;;;;;;;15.05;14.25;;;;;;;22.52;100.00;99279.72;5051687;28;20114;-72
2022/09/27 10:06:23;;;;;;;16.10;15.18;;;;;;;24.17;100.00;99281.06;5050854;28;20590;-71
2022/09/27 10:08:53;;;;;;;15.02;14.23;;;;;;;25.01;100.00;99270.94;5051635;28;20053;-71
2022/09/27 10:11:24;;;;;;;15.32;14.48;;;;;;;21.37;100.00;99268.28;5052842;28;20021;-71
2022/09/27 10:13:51;;;;;;;16.42;15.50;;;;;;;21.70;100.00;99269.47;5050449;28;20447;-71
2022/09/27 10:16:19;;;;;;;15.40;14.60;;;;;;;23.23;100.00;99276.31;5051546;28;20399;-71
2022/09/27 10:18:47;;;;;;;16.20;15.30;;;;;;;24.40;100.00;99274.75;5051440;28;20020;-70
2022/09/27 10:21:19;;;;;;;14.95;14.15;;;;;;;24.54;100.00;99274.78;5048641;28;20420;-72
2022/09/27 10:24:08;;;;;;;15.13;14.32;;;;;;;22.02;100.00;99277.06;5050131;28;20083;-72
2022/09/27 10:26:36;;;;;;;15.77;14.88;;;;;;;23.98;100.00;99268.31;5049131;28;20036;-71
2022/09/27 10:29:26;;;;;;;14.20;13.50;;;;;;;24.59;100.00;99269.25;5045685;28;20077;-71
2022/09/27 10:31:52;;;;;;;14.35;13.65;;;;;;;24.02;100.00;99267.72;5052440;28;20035;-72
2022/09/27 10:34:26;;;;;;;14.30;13.60;;;;;;;24.05;100.00;99267.13;5044690;28;20395;-71
2022/09/27 10:37:16;;;;;;;14.82;14.02;;;;;;;23.32;100.00;99261.06;5051497;28;20025;-71
2022/09/27 10:39:46;;;;;;;14.50;13.80;;;;;;;22.60;100.00;99243.97;5039181;28;20411;-70
2022/09/27 10:42:32;;;;;;;14.85;14.05;;;;;;;24.36;100.00;99254.75;5051427;28;20035;-70
2022/09/27 10:45:31;;;;;;;15.10;14.27;;;;;;;24.47;100.00;99252.69;5050452;28;20029;-70
2022/09/27 10:48:00;;;;;;;14.32;13.63;;;;;;;25.13;100.00;99256.09;5035375;28;20527;-72
2022/09/27 10:50:28;;;;;;;14.63;13.82;;;;;;;25.47;100.00;99252.94;5050390;28;20032;-71
2022/09/27 10:53:11;;;;;;;14.90;14.10;;;;;;;25.16;100.00;99247.34;5054702;28;20033;-72
2022/09/27 10:55:38;;;;;;;15.27;14.48;;;;;;;25.25;100.00;99243.63;5045333;28;20389;-72
2022/09/27 10:58:05;;;;;;;14.20;13.50;;;;;;;25.04;100.00;99245.94;5042407;28;20048;-72
2022/09/27 11:00:40;;;;;;;14.00;13.30;;;;;;;25.31;100.00;99236.97;5056047;28;20492;-72
2022/09/27 11:03:13;;;;;;;14.98;14.18;;;;;;;25.38;100.00;99241.19;5055351;28;20025;-71
2022/09/27 11:05:39;;;;;;;14.80;14.00;;;;;;;24.88;100.00;99243.78;5054262;28;20017;-71
2022/09/27 11:08:32;;;;;;;14.98;14.18;;;;;;;24.26;100.00;99241.34;5055165;28;20035;-72
2022/09/27 11:11:21;;;;;;;13.98;13.27;;;;;;;24.72;100.00;99244.06;5053102;28;20119;-71
2022/09/27 11:14:23;;;;;;;14.98;14.18;;;;;;;24.83;100.00;99246.63;5053957;28;20392;-71
2022/09/27 11:17:09;;;;;;;15.18;14.38;;;;;;;24.15;100.00;99246.09;5044934;28;20029;-71
2022/09/27 11:19:55;;;;;;;14.38;13.60;;;;;;;24.96;100.00;99246.59;5047216;28;20032;-71
2022/09/27 11:22:30;;;;;;;14.90;14.10;;;;;;;25.18;100.00;99240.50;5046654;28;20021;-70
2022/09/27 11:25:04;;;;;;;;;;;;;;;23.49;100.00;99238.09;5055332;28;20489;-71
2022/09/27 11:27:58;;;;;;;15.63;14.73;;;;;;;24.59;100.00;99238.63;5054950;28;19909;-71
2022/09/27 11:30:28;;;;;;;14.77;13.98;;;;;;;24.70;100.00;99235.44;5046046;28;20033;-72
2022/09/27 11:33:41;;;;;;;14.57;13.82;;;;;;;24.66;100.00;99234.41;5054794;28;20388;-72
2022/09/27 11:36:20;;;;;;;14.50;13.80;;;;;;;23.96;100.00;99234.50;5032368;28;20037;-71
2022/09/27 11:38:49;;;;;;;14.90;14.10;;;;;;;24.43;100.00;99229.97;5032546;28;20037;-70